createdAt,value
2022-10-21T00:00:56.928Z,19.99
2022-10-21T00:07:44.961Z,20.02
2022-10-21T00:14:30.371Z,20.11
2022-10-21T00:21:19.339Z,19.91
2022-10-21T00:28:07.393Z,20.17
2022-10-21T00:34:52.748Z,20.24
2022-10-21T00:41:38.087Z,20.39
2022-10-21T00:48:34.458Z,20.40
2022-10-21T00:55:19.983Z,20.46
2022-10-21T01:02:06.461Z,20.29
2022-10-21T01:08:55.185Z,20.48
2022-10-21T01:15:47.250Z,20.46
2022-10-21T01:22:59.364Z,20.43
2022-10-21T01:30:11.526Z,20.44
2022-10-21T01:37:07.880Z,20.36
2022-10-21T01:44:02.845Z,20.49
2022-10-21T01:50:53.816Z,20.43
2022-10-21T01:57:47.185Z,20.52
2022-10-21T02:04:34.569Z,20.43
2022-10-21T02:11:20.829Z,20.53
2022-10-21T02:18:11.330Z,20.78
2022-10-21T02:25:00.693Z,20.59
2022-10-21T02:32:10.898Z,20.56
2022-10-21T02:39:06.256Z,20.46
2022-10-21T03:00:13.866Z,20.60
2022-10-21T03:06:59.243Z,20.55
2022-10-21T03:13:44.589Z,20.55
2022-10-21T03:20:32.565Z,20.59
2022-10-21T03:27:17.913Z,20.52
2022-10-21T03:34:03.309Z,20.50
2022-10-21T03:40:52.605Z,20.52
2022-10-21T03:47:37.995Z,20.52
2022-10-21T03:54:23.400Z,20.40
2022-10-21T04:01:15.473Z,20.01
2022-10-21T04:08:01.077Z,20.42
2022-10-21T04:14:46.546Z,20.39
2022-10-21T04:21:34.489Z,20.35
2022-10-21T04:28:20.001Z,20.37
2022-10-21T04:35:07.622Z,20.21
2022-10-21T04:41:56.056Z,20.22
2022-10-21T04:48:41.534Z,20.27
2022-10-21T04:55:26.913Z,20.27
2022-10-21T05:02:15.197Z,20.20
2022-10-21T05:09:00.890Z,20.21
2022-10-21T05:15:46.281Z,20.06
2022-10-21T05:22:34.260Z,20.08
2022-10-21T05:29:19.849Z,20.17
2022-10-21T05:36:08.731Z,20.16
2022-10-21T05:42:56.672Z,20.15
2022-10-21T05:49:42.057Z,20.06
2022-10-21T05:56:27.446Z,20.17
2022-10-21T06:03:15.386Z,20.11
2022-10-21T06:10:00.744Z,20.18
2022-10-21T06:16:46.263Z,20.10
2022-10-21T06:23:34.297Z,20.10
2022-10-21T06:30:19.825Z,20.07
2022-10-21T06:37:05.186Z,20.23
2022-10-21T06:43:53.125Z,20.21
2022-10-21T06:50:40.420Z,20.33
2022-10-21T06:57:27.739Z,19.91
2022-10-21T07:04:15.752Z,20.23
2022-10-21T07:11:04.944Z,20.21
2022-10-21T07:17:50.277Z,19.83
2022-10-21T07:24:38.894Z,19.53
2022-10-21T07:31:25.024Z,19.21
2022-10-21T07:38:12.293Z,19.03
2022-10-21T07:45:02.245Z,18.92
2022-10-21T07:51:50.222Z,18.88
2022-10-21T07:58:36.255Z,18.86
2022-10-21T08:05:24.293Z,18.89
2022-10-21T08:12:12.932Z,19.00
2022-10-21T08:19:03.491Z,18.94
2022-10-21T08:25:58.670Z,19.07
2022-10-21T08:32:44.095Z,19.11
2022-10-21T08:39:29.905Z,19.03
2022-10-21T08:46:24.507Z,18.75
2022-10-21T08:53:17.796Z,19.06
2022-10-21T09:00:03.293Z,19.10
2022-10-21T09:07:00.774Z,19.12
2022-10-21T09:14:04.409Z,19.07
2022-10-21T09:21:03.188Z,19.07
2022-10-21T09:27:56.800Z,19.02
2022-10-21T09:34:50.635Z,19.08
2022-10-21T09:41:41.858Z,19.11
2022-10-21T09:48:55.056Z,19.08
2022-10-21T09:55:52.549Z,19.18
2022-10-21T10:02:43.269Z,19.37
2022-10-21T10:09:34.178Z,19.57
2022-10-21T10:16:28.473Z,19.64
2022-10-21T10:23:22.025Z,19.89
2022-10-21T10:30:17.484Z,20.06
2022-10-21T10:37:07.720Z,20.02
2022-10-21T10:43:56.303Z,20.01
2022-10-21T10:50:50.792Z,19.26
2022-10-21T10:57:45.922Z,19.76
2022-10-21T11:04:45.481Z,19.38
2022-10-21T11:11:40.089Z,19.56
2022-10-21T11:18:35.674Z,19.48
2022-10-21T11:25:27.976Z,19.43
2022-10-21T11:32:30.816Z,19.45
2022-10-21T11:39:45.790Z,19.47
2022-10-21T11:46:42.217Z,19.69
2022-10-21T11:54:02.461Z,19.78
2022-10-21T12:01:02.202Z,19.97
2022-10-21T12:08:08.033Z,20.06
2022-10-21T12:15:02.385Z,20.11
2022-10-21T12:21:49.266Z,19.74
2022-10-21T12:28:41.796Z,19.94
2022-10-21T12:35:50.541Z,18.93
2022-10-21T12:42:37.429Z,20.27
2022-10-21T12:49:27.560Z,20.25
2022-10-21T12:56:29.246Z,20.36
2022-10-21T13:03:16.408Z,20.45
2022-10-21T13:10:28.621Z,20.10
2022-10-21T13:17:49.048Z,20.73
2022-10-21T13:24:36.086Z,20.77
2022-10-21T13:31:24.817Z,20.88
2022-10-21T13:38:25.145Z,21.03
2022-10-21T13:45:27.162Z,21.05
2022-10-21T13:52:14.296Z,21.22
2022-10-21T13:59:04.858Z,20.84
2022-10-21T14:05:53.350Z,21.12
2022-10-21T14:12:42.952Z,21.03
2022-10-21T14:19:35.384Z,20.89
2022-10-21T14:26:21.515Z,20.80
2022-10-21T14:33:15.113Z,20.72
2022-10-21T14:40:26.443Z,20.74
2022-10-21T14:47:21.341Z,20.75
2022-10-21T14:54:09.210Z,20.71
2022-10-21T15:01:04.888Z,20.68
2022-10-21T15:07:50.262Z,20.70
2022-10-21T15:14:35.667Z,20.66
2022-10-21T15:21:37.486Z,20.66
2022-10-21T15:28:23.488Z,20.82
2022-10-21T15:35:16.910Z,20.81
2022-10-21T15:42:05.337Z,20.77
2022-10-21T15:48:50.893Z,20.77
2022-10-21T15:55:38.086Z,20.65
2022-10-21T16:02:26.027Z,20.63
2022-10-21T16:09:14.698Z,20.57
2022-10-21T16:16:05.056Z,20.57
2022-10-21T16:22:53.169Z,20.55
2022-10-21T16:29:38.538Z,20.63
2022-10-21T16:36:27.662Z,20.50
2022-10-21T16:43:16.345Z,20.50
2022-10-21T16:50:05.188Z,20.38
2022-10-21T16:56:53.354Z,20.37
2022-10-21T17:03:43.138Z,20.50
2022-10-21T17:10:28.508Z,20.58
2022-10-21T17:17:15.094Z,20.68
2022-10-21T17:24:04.734Z,20.57
2022-10-21T17:30:50.957Z,20.39
2022-10-21T17:37:36.238Z,20.47
2022-10-21T17:44:24.908Z,20.19
2022-10-21T17:51:11.453Z,20.18
2022-10-21T17:57:56.910Z,19.77
2022-10-21T18:04:45.288Z,20.00
2022-10-21T18:11:31.221Z,19.97
2022-10-21T18:18:16.625Z,20.00
2022-10-21T18:25:04.792Z,19.98
2022-10-21T18:31:50.886Z,19.98
2022-10-21T18:38:36.238Z,19.91
2022-10-21T18:45:24.357Z,19.85
2022-10-21T18:52:11.479Z,19.71
2022-10-21T18:58:58.954Z,20.15
2022-10-21T19:05:46.933Z,20.42
2022-10-21T19:12:32.279Z,20.33
2022-10-21T19:19:19.053Z,20.23
2022-10-21T19:26:09.332Z,20.14
2022-10-21T19:32:54.935Z,20.08
2022-10-21T19:39:40.355Z,20.09
2022-10-21T19:46:30.456Z,20.06
2022-10-21T19:53:16.001Z,20.01
2022-10-21T20:00:04.500Z,19.48
2022-10-21T20:07:00.157Z,20.02
2022-10-21T20:13:47.839Z,20.03
2022-10-21T20:20:33.184Z,19.94
2022-10-21T20:27:21.279Z,19.93
2022-10-21T20:34:06.928Z,20.18
2022-10-21T20:41:02.390Z,20.20
2022-10-21T20:47:50.374Z,20.33
2022-10-21T20:54:35.920Z,20.50
2022-10-21T21:01:25.737Z,20.59
2022-10-21T21:08:14.115Z,20.60
2022-10-21T21:14:59.476Z,20.55
2022-10-21T21:21:44.881Z,20.54
2022-10-21T21:28:35.560Z,20.46
2022-10-21T21:35:21.739Z,20.34
2022-10-21T21:42:08.276Z,20.18
2022-10-21T21:49:04.747Z,20.02
2022-10-21T21:55:51.081Z,19.95
2022-10-21T22:02:36.469Z,19.84
2022-10-21T22:09:24.376Z,19.76
2022-10-21T22:16:13.317Z,19.74
2022-10-21T22:22:58.707Z,19.72
2022-10-21T22:29:46.654Z,19.63
2022-10-21T22:36:32.462Z,19.63
2022-10-21T22:43:17.813Z,19.65
2022-10-21T22:50:06.128Z,19.63
2022-10-21T22:56:51.509Z,19.71
2022-10-21T23:03:36.904Z,19.67
2022-10-21T23:10:25.261Z,19.64
2022-10-21T23:17:10.609Z,19.70
2022-10-21T23:23:56.064Z,19.69
2022-10-21T23:30:44.349Z,19.34
2022-10-21T23:37:29.868Z,19.70
2022-10-21T23:44:15.273Z,19.68
2022-10-21T23:51:04.281Z,19.65
2022-10-21T23:57:49.833Z,19.53
